Wetterdaten: Woche 25.12.17 - 31.12.17 (KW52)
Datum Zeit Temp. A. Feuchte A. Luftdruck Regen Wind Richtung Taupunkt Windchill Windben
25.12.2017 00:00 1,4 C 96 % 1026,6 hPa 0,0 l/m 2,3 km/h (1 Bft) O 0,8 C 1,4 C 6,7 km/h (2 Bft)
25.12.2017 01:00 1,3 C 96 % 1025,9 hPa 0,0 l/m 2,2 km/h (1 Bft) O-NO 0,7 C 1,3 C 7,2 km/h (2 Bft)
25.12.2017 02:00 1,2 C 96 % 1025,8 hPa 0,0 l/m 0,8 km/h (0 Bft) O-NO 0,6 C 1,2 C 4,2 km/h (1 Bft)
25.12.2017 03:00 1,1 C 95 % 1025,5 hPa 0,0 l/m 1,4 km/h (1 Bft) O-NO 0,4 C 1,1 C 4,5 km/h (1 Bft)
25.12.2017 04:00 0,9 C 95 % 1025,1 hPa 0,0 l/m 1,8 km/h (1 Bft) NO 0,2 C 0,9 C 6,0 km/h (2 Bft)
25.12.2017 05:00 0,7 C 96 % 1024,7 hPa 0,0 l/m 2,2 km/h (1 Bft) O-NO 0,2 C 0,7 C 6,3 km/h (2 Bft)
25.12.2017 06:00 0,5 C 97 % 1024,2 hPa 0,0 l/m 2,0 km/h (1 Bft) NO 0,1 C 0,5 C 6,1 km/h (2 Bft)
25.12.2017 07:00 0,2 C 97 % 1023,7 hPa 0,0 l/m 2,5 km/h (1 Bft) O-NO -0,2 C 0,2 C 6,1 km/h (2 Bft)
25.12.2017 08:00 -0,6 C 97 % 1023,4 hPa 0,0 l/m 1,1 km/h (1 Bft) NO -1,0 C -0,6 C 4,3 km/h (1 Bft)
25.12.2017 09:00 -0,5 C 96 % 1023,0 hPa 0,0 l/m 1,6 km/h (1 Bft) N-NO -1,0 C -0,5 C 5,1 km/h (1 Bft)
25.12.2017 10:00 1,0 C 89 % 1022,8 hPa 0,0 l/m 2,7 km/h (1 Bft) NO -0,5 C 1,0 C 6,3 km/h (2 Bft)
25.12.2017 11:00 3,0 C 85 % 1021,9 hPa 0,0 l/m 2,9 km/h (1 Bft) NO 0,7 C 3,0 C 6,6 km/h (2 Bft)
25.12.2017 12:00 4,3 C 82 % 1021,0 hPa 0,0 l/m 2,6 km/h (1 Bft) N-NO 1,5 C 4,3 C 5,6 km/h (2 Bft)
25.12.2017 13:00 6,1 C 78 % 1019,6 hPa 0,0 l/m 2,9 km/h (1 Bft) NO 2,5 C 6,1 C 7,0 km/h (2 Bft)
25.12.2017 14:00 7,0 C 76 % 1018,7 hPa 0,0 l/m 0,8 km/h (0 Bft) W-NW 3,0 C 7,0 C 3,5 km/h (1 Bft)
25.12.2017 15:00 5,0 C 82 % 1018,1 hPa 0,0 l/m 0,6 km/h (0 Bft) O 2,1 C 5,0 C 3,2 km/h (1 Bft)
25.12.2017 16:00 3,4 C 84 % 1017,7 hPa 0,0 l/m 0,4 km/h (0 Bft) O 1,0 C 3,4 C 2,8 km/h (1 Bft)
25.12.2017 17:00 1,3 C 89 % 1017,3 hPa 0,0 l/m 0,3 km/h (0 Bft) O -0,4 C 1,3 C 2,4 km/h (1 Bft)
25.12.2017 18:00 -0,1 C 92 % 1017,1 hPa 0,0 l/m 0,1 km/h (0 Bft) O -1,3 C -0,1 C 0,8 km/h (0 Bft)
25.12.2017 19:00 -1,6 C 94 % 1016,7 hPa 0,0 l/m 0,0 km/h (0 Bft) O -2,5 C -1,6 C 0,4 km/h (0 Bft)
25.12.2017 20:00 -1,9 C 96 % 1015,9 hPa 0,0 l/m 0,2 km/h (0 Bft) O -2,5 C -1,9 C 1,7 km/h (1 Bft)
25.12.2017 21:00 -0,6 C 93 % 1015,4 hPa 0,0 l/m 0,3 km/h (0 Bft) O -1,6 C -0,6 C 2,8 km/h (1 Bft)
25.12.2017 22:00 -0,1 C 88 % 1015,1 hPa 0,0 l/m 0,5 km/h (0 Bft) O-SO -1,9 C -0,1 C 2,7 km/h (1 Bft)
25.12.2017 23:00 -0,9 C 90 % 1014,8 hPa 0,0 l/m 0,1 km/h (0 Bft) S-SO -2,3 C -0,9 C 1,0 km/h (0 Bft)
26.12.2017 00:00 -1,2 C 91 % 1014,4 hPa 0,0 l/m 0,4 km/h (0 Bft) S-SO -2,5 C -1,2 C 1,7 km/h (1 Bft)
26.12.2017 01:00 -1,0 C 93 % 1013,6 hPa 0,0 l/m 1,4 km/h (1 Bft) S-SW -2,0 C -1,0 C 4,3 km/h (1 Bft)
26.12.2017 02:00 3,7 C 84 % 1012,7 hPa 0,0 l/m 3,4 km/h (1 Bft) NO 1,3 C 3,7 C 12,1 km/h (2 Bft)
26.12.2017 03:00 6,3 C 77 % 1011,6 hPa 0,0 l/m 6,1 km/h (2 Bft) O-NO 2,5 C 6,2 C 16,1 km/h (3 Bft)
26.12.2017 04:00 6,4 C 77 % 1010,7 hPa 0,0 l/m 4,7 km/h (1 Bft) NO 2,6 C 6,4 C 12,9 km/h (3 Bft)
26.12.2017 05:00 6,0 C 78 % 1010,0 hPa 0,0 l/m 5,3 km/h (1 Bft) O-NO 2,5 C 5,9 C 13,7 km/h (3 Bft)
26.12.2017 06:00 1,3 C 85 % 1009,5 hPa 0,0 l/m 2,8 km/h (1 Bft) NO -1,0 C 1,3 C 8,4 km/h (2 Bft)
26.12.2017 07:00 -0,2 C 89 % 1009,1 hPa 0,0 l/m 2,8 km/h (1 Bft) NO -1,9 C -0,2 C 9,1 km/h (2 Bft)
26.12.2017 08:00 0,1 C 89 % 1008,5 hPa 0,0 l/m 2,6 km/h (1 Bft) NO -1,5 C 0,1 C 9,9 km/h (2 Bft)
26.12.2017 09:00 1,7 C 86 % 1007,9 hPa 0,0 l/m 5,9 km/h (2 Bft) NO -0,5 C 1,3 C 15,2 km/h (3 Bft)
26.12.2017 10:00 6,1 C 75 % 1007,9 hPa 0,0 l/m 10,9 km/h (2 Bft) NO 1,9 C 3,0 C 28,6 km/h (5 Bft)
26.12.2017 11:00 7,6 C 69 % 1008,0 hPa 0,0 l/m 14,5 km/h (3 Bft) O-NO 2,2 C 2,6 C 28,5 km/h (5 Bft)
26.12.2017 12:00 6,7 C 72 % 1008,2 hPa 0,0 l/m 12,9 km/h (3 Bft) NO 2,0 C 2,3 C 25,6 km/h (4 Bft)
26.12.2017 13:00 5,7 C 73 % 1009,0 hPa 0,0 l/m 9,3 km/h (2 Bft) NO 1,2 C 3,3 C 23,9 km/h (4 Bft)
26.12.2017 14:00 5,5 C 74 % 1008,9 hPa 0,0 l/m 8,8 km/h (2 Bft) NO 1,4 C 3,6 C 20,1 km/h (4 Bft)
26.12.2017 15:00 5,3 C 70 % 1008,5 hPa 0,0 l/m 8,0 km/h (2 Bft) N-NO 0,4 C 3,9 C 18,5 km/h (3 Bft)
26.12.2017 16:00 4,0 C 73 % 1008,2 hPa 0,0 l/m 3,8 km/h (1 Bft) O-NO -0,5 C 3,8 C 10,5 km/h (2 Bft)
26.12.2017 17:00 1,6 C 80 % 1007,9 hPa 0,0 l/m 0,2 km/h (0 Bft) O -1,4 C 1,6 C 1,1 km/h (0 Bft)
26.12.2017 18:00 0,0 C 86 % 1007,2 hPa 0,0 l/m 0,3 km/h (0 Bft) O -2,0 C 0,0 C 2,1 km/h (1 Bft)
26.12.2017 19:00 1,0 C 84 % 1006,3 hPa 0,0 l/m 2,8 km/h (1 Bft) NO -1,4 C 1,0 C 7,8 km/h (2 Bft)
26.12.2017 20:00 0,5 C 88 % 1005,0 hPa 0,0 l/m 1,3 km/h (1 Bft) O-NO -1,3 C 0,5 C 4,7 km/h (1 Bft)
26.12.2017 21:00 -0,5 C 92 % 1003,4 hPa 0,0 l/m 0,2 km/h (0 Bft) O-NO -1,7 C -0,5 C 1,7 km/h (1 Bft)
26.12.2017 22:00 0,1 C 93 % 1002,3 hPa 0,0 l/m 2,6 km/h (1 Bft) O -0,9 C 0,1 C 8,3 km/h (2 Bft)
26.12.2017 23:00 0,2 C 93 % 1001,1 hPa 0,0 l/m 2,0 km/h (1 Bft) O -0,8 C 0,2 C 5,0 km/h (1 Bft)
27.12.2017 00:00 0,3 C 93 % 1000,1 hPa 0,0 l/m 1,6 km/h (1 Bft) O -0,7 C 0,3 C 5,3 km/h (1 Bft)
27.12.2017 01:00 0,7 C 93 % 998,2 hPa 0,0 l/m 1,9 km/h (1 Bft) O-NO -0,2 C 0,7 C 6,3 km/h (2 Bft)
27.12.2017 02:00 1,1 C 93 % 996,6 hPa 0,0 l/m 2,7 km/h (1 Bft) O 0,0 C 1,1 C 8,3 km/h (2 Bft)
27.12.2017 03:00 1,1 C 91 % 995,1 hPa 0,0 l/m 1,2 km/h (1 Bft) O-NO -0,2 C 1,1 C 4,7 km/h (1 Bft)
27.12.2017 04:00 0,9 C 90 % 993,7 hPa 0,0 l/m 0,7 km/h (0 Bft) O -0,5 C 0,9 C 3,5 km/h (1 Bft)
27.12.2017 05:00 0,6 C 92 % 992,5 hPa 0,0 l/m 1,0 km/h (0 Bft) N -0,6 C 0,6 C 3,6 km/h (1 Bft)
27.12.2017 06:00 0,7 C 92 % 991,8 hPa 0,0 l/m 0,3 km/h (0 Bft) NW -0,4 C 0,7 C 2,0 km/h (1 Bft)
27.12.2017 07:00 1,2 C 91 % 991,4 hPa 0,0 l/m 0,5 km/h (0 Bft) O-NO -0,0 C 1,2 C 2,0 km/h (1 Bft)
27.12.2017 08:00 0,9 C 92 % 990,8 hPa 0,0 l/m 0,1 km/h (0 Bft) N-NO -0,3 C 0,9 C 0,5 km/h (0 Bft)
27.12.2017 09:00 0,7 C 94 % 990,1 hPa 0,0 l/m 0,1 km/h (0 Bft) N-NO -0,2 C 0,7 C 1,2 km/h (1 Bft)
27.12.2017 10:00 1,7 C 94 % 989,3 hPa 0,0 l/m 0,3 km/h (0 Bft) SW 0,9 C 1,7 C 2,1 km/h (1 Bft)
27.12.2017 11:00 3,4 C 90 % 988,4 hPa 0,0 l/m 1,3 km/h (1 Bft) O-NO 2,0 C 3,4 C 3,3 km/h (1 Bft)
27.12.2017 12:00 3,8 C 89 % 988,0 hPa 0,3 l/m 0,4 km/h (0 Bft) W-NW 2,2 C 3,8 C 2,1 km/h (1 Bft)
27.12.2017 13:00 4,1 C 93 % 987,6 hPa 0,3 l/m 1,7 km/h (1 Bft) O-NO 3,1 C 4,1 C 5,3 km/h (1 Bft)
27.12.2017 14:00 4,1 C 92 % 986,9 hPa 0,0 l/m 1,4 km/h (1 Bft) O-NO 2,9 C 4,1 C 4,7 km/h (1 Bft)
27.12.2017 15:00 3,6 C 92 % 986,6 hPa 0,0 l/m 1,5 km/h (1 Bft) N-NO 2,4 C 3,6 C 5,5 km/h (2 Bft)
27.12.2017 16:00 3,1 C 92 % 986,7 hPa 0,0 l/m 0,7 km/h (0 Bft) N-NO 2,0 C 3,1 C 3,5 km/h (1 Bft)
27.12.2017 17:00 2,8 C 92 % 986,7 hPa 0,0 l/m 1,9 km/h (1 Bft) O-NO 1,6 C 2,8 C 6,8 km/h (2 Bft)
27.12.2017 18:00 2,3 C 93 % 986,9 hPa 0,0 l/m 4,1 km/h (1 Bft) O 1,2 C 2,3 C 9,9 km/h (2 Bft)
27.12.2017 19:00 2,4 C 93 % 987,6 hPa 0,0 l/m 4,2 km/h (1 Bft) NO 1,4 C 2,3 C 11,5 km/h (2 Bft)
27.12.2017 20:00 2,3 C 93 % 988,5 hPa 0,3 l/m 4,0 km/h (1 Bft) O-NO 1,3 C 2,3 C 11,8 km/h (2 Bft)
27.12.2017 21:00 1,7 C 93 % 989,2 hPa 0,5 l/m 6,7 km/h (2 Bft) N-NO 0,7 C 1,0 C 18,0 km/h (3 Bft)
27.12.2017 22:00 1,2 C 92 % 989,7 hPa 0,0 l/m 4,9 km/h (1 Bft) O 0,1 C 1,2 C 13,9 km/h (3 Bft)
27.12.2017 23:00 0,9 C 90 % 990,1 hPa 0,0 l/m 5,3 km/h (1 Bft) NO -0,5 C 0,8 C 13,4 km/h (3 Bft)
28.12.2017 00:00 0,9 C 90 % 990,4 hPa 0,0 l/m 5,5 km/h (2 Bft) NO -0,6 C 0,7 C 13,3 km/h (3 Bft)
28.12.2017 01:00 0,5 C 93 % 990,8 hPa 0,0 l/m 5,2 km/h (1 Bft) O-NO -0,5 C 0,4 C 14,4 km/h (3 Bft)
28.12.2017 02:00 0,2 C 95 % 991,1 hPa 0,0 l/m 6,2 km/h (2 Bft) O-NO -0,6 C -0,3 C 15,2 km/h (3 Bft)
28.12.2017 03:00 -0,1 C 96 % 991,8 hPa 0,0 l/m 4,9 km/h (1 Bft) O -0,7 C -0,2 C 12,1 km/h (2 Bft)
28.12.2017 04:00 -0,3 C 96 % 992,7 hPa 0,0 l/m 3,1 km/h (1 Bft) O -0,8 C -0,3 C 8,7 km/h (2 Bft)
28.12.2017 05:00 -0,5 C 96 % 993,7 hPa 0,0 l/m 3,4 km/h (1 Bft) O-NO -1,0 C -0,5 C 11,0 km/h (2 Bft)
28.12.2017 06:00 -0,5 C 96 % 994,8 hPa 0,0 l/m 2,7 km/h (1 Bft) O-NO -1,1 C -0,5 C 8,7 km/h (2 Bft)
28.12.2017 07:00 -0,5 C 96 % 996,0 hPa 0,0 l/m 3,3 km/h (1 Bft) O-NO -1,1 C -0,5 C 10,8 km/h (2 Bft)
28.12.2017 08:00 -0,6 C 96 % 997,4 hPa 0,0 l/m 2,8 km/h (1 Bft) NO -1,2 C -0,6 C 9,9 km/h (2 Bft)
28.12.2017 09:00 -0,5 C 95 % 998,7 hPa 0,0 l/m 1,5 km/h (1 Bft) O -1,2 C -0,5 C 6,0 km/h (2 Bft)
28.12.2017 10:00 -0,5 C 95 % 999,8 hPa 0,0 l/m 2,5 km/h (1 Bft) O-NO -1,2 C -0,5 C 7,1 km/h (2 Bft)
28.12.2017 11:00 -0,6 C 94 % 1000,7 hPa 0,0 l/m 2,6 km/h (1 Bft) O-NO -1,5 C -0,6 C 7,6 km/h (2 Bft)
28.12.2017 12:00 -0,7 C 93 % 1001,1 hPa 0,0 l/m 3,6 km/h (1 Bft) O-NO -1,6 C -0,7 C 9,6 km/h (2 Bft)
28.12.2017 13:00 -1,0 C 93 % 1001,7 hPa 0,0 l/m 5,6 km/h (2 Bft) NO -1,9 C -1,2 C 14,3 km/h (3 Bft)
28.12.2017 14:00 -1,4 C 94 % 1002,6 hPa 0,0 l/m 4,6 km/h (1 Bft) O -2,2 C -1,4 C 11,7 km/h (2 Bft)
28.12.2017 15:00 -1,6 C 94 % 1003,7 hPa 0,0 l/m 5,1 km/h (1 Bft) O-NO -2,5 C -1,7 C 14,4 km/h (3 Bft)
28.12.2017 16:00 -1,8 C 93 % 1004,9 hPa 0,0 l/m 5,9 km/h (2 Bft) NO -2,7 C -2,1 C 14,8 km/h (3 Bft)
28.12.2017 17:00 -1,8 C 93 % 1006,0 hPa 0,0 l/m 4,9 km/h (1 Bft) O -2,8 C -1,8 C 12,5 km/h (2 Bft)
28.12.2017 18:00 -1,8 C 93 % 1006,8 hPa 0,0 l/m 5,1 km/h (1 Bft) O-NO -2,9 C -2,0 C 14,1 km/h (3 Bft)
28.12.2017 19:00 -1,9 C 92 % 1007,6 hPa 0,0 l/m 3,3 km/h (1 Bft) O-NO -3,1 C -1,9 C 9,5 km/h (2 Bft)
28.12.2017 20:00 -2,5 C 92 % 1008,2 hPa 0,0 l/m 2,2 km/h (1 Bft) O -3,7 C -2,5 C 8,3 km/h (2 Bft)
28.12.2017 21:00 -2,6 C 92 % 1008,9 hPa 0,0 l/m 2,4 km/h (1 Bft) O -3,7 C -2,6 C 7,6 km/h (2 Bft)
28.12.2017 22:00 -3,1 C 92 % 1009,6 hPa 0,0 l/m 0,6 km/h (0 Bft) O-NO -4,2 C -3,1 C 3,1 km/h (1 Bft)
28.12.2017 23:00 -2,6 C 93 % 1010,8 hPa 0,0 l/m 2,1 km/h (1 Bft) NO -3,6 C -2,6 C 5,4 km/h (1 Bft)
29.12.2017 00:00 -2,4 C 93 % 1011,1 hPa 0,0 l/m 3,2 km/h (1 Bft) NO -3,4 C -2,4 C 7,9 km/h (2 Bft)
29.12.2017 01:00 -2,7 C 92 % 1011,6 hPa 0,0 l/m 1,4 km/h (1 Bft) O-NO -3,7 C -2,7 C 4,4 km/h (1 Bft)
29.12.2017 02:00 -2,9 C 92 % 1012,3 hPa 0,0 l/m 0,2 km/h (0 Bft) O-NO -4,0 C -2,9 C 2,0 km/h (1 Bft)
29.12.2017 03:00 -3,4 C 93 % 1012,6 hPa 0,0 l/m 0,1 km/h (0 Bft) O-NO -4,4 C -3,4 C 0,9 km/h (0 Bft)
29.12.2017 04:00 -5,0 C 93 % 1012,8 hPa 0,0 l/m 0,1 km/h (0 Bft) O-NO -5,9 C -5,0 C 0,9 km/h (0 Bft)
29.12.2017 05:00 -5,9 C 94 % 1012,9 hPa 0,0 l/m 0,1 km/h (0 Bft) O-NO -6,7 C -5,9 C 1,3 km/h (1 Bft)
29.12.2017 06:00 -6,4 C 93 % 1013,1 hPa 0,0 l/m 0,6 km/h (0 Bft) O -7,4 C -6,4 C 3,1 km/h (1 Bft)
29.12.2017 07:00 -6,6 C 93 % 1013,2 hPa 0,0 l/m 0,3 km/h (0 Bft) O -7,5 C -6,6 C 2,0 km/h (1 Bft)
29.12.2017 08:00 -5,8 C 93 % 1013,3 hPa 0,0 l/m 0,0 km/h (0 Bft) N-NO -6,7 C -5,8 C 0,8 km/h (0 Bft)
29.12.2017 09:00 -4,8 C 92 % 1013,2 hPa 0,0 l/m 0,3 km/h (0 Bft) N-NO -6,0 C -4,8 C 1,6 km/h (1 Bft)
29.12.2017 10:00 -2,8 C 87 % 1013,0 hPa 0,0 l/m 4,2 km/h (1 Bft) NO -4,7 C -2,8 C 11,1 km/h (2 Bft)
29.12.2017 11:00 -0,5 C 82 % 1012,2 hPa 1,0 l/m 2,0 km/h (1 Bft) NO -3,2 C -0,5 C 4,7 km/h (1 Bft)
29.12.2017 12:00 0,2 C 81 % 1011,8 hPa 1,3 l/m 3,0 km/h (1 Bft) NO -2,6 C 0,2 C 6,1 km/h (2 Bft)
29.12.2017 13:00 -0,0 C 82 % 1010,8 hPa 0,8 l/m 1,5 km/h (1 Bft) N-NO -2,7 C -0,0 C 6,7 km/h (2 Bft)
29.12.2017 14:00 -0,7 C 82 % 1010,1 hPa 0,0 l/m 4,1 km/h (1 Bft) O-NO -3,4 C -0,7 C 11,4 km/h (2 Bft)
29.12.2017 15:00 -1,0 C 86 % 1009,4 hPa 0,0 l/m 5,9 km/h (2 Bft) O-NO -3,1 C -1,2 C 14,4 km/h (3 Bft)
29.12.2017 16:00 -1,5 C 90 % 1007,9 hPa 0,3 l/m 3,4 km/h (1 Bft) O -3,0 C -1,5 C 9,7 km/h (2 Bft)
29.12.2017 17:00 -1,4 C 89 % 1006,7 hPa 0,0 l/m 5,2 km/h (1 Bft) N-NO -3,0 C -1,4 C 14,0 km/h (3 Bft)
29.12.2017 18:00 -1,7 C 90 % 1005,8 hPa 0,0 l/m 3,7 km/h (1 Bft) NO -3,2 C -1,7 C 9,7 km/h (2 Bft)
29.12.2017 19:00 -1,7 C 94 % 1005,2 hPa 0,0 l/m 3,3 km/h (1 Bft) O-NO -2,5 C -1,7 C 9,1 km/h (2 Bft)
29.12.2017 20:00 0,4 C 95 % 1005,0 hPa 0,0 l/m 7,3 km/h (2 Bft) O-NO -0,3 C -1,4 C 18,4 km/h (3 Bft)
29.12.2017 21:00 0,9 C 94 % 1006,1 hPa 0,0 l/m 7,1 km/h (2 Bft) O-NO 0,1 C -0,2 C 17,8 km/h (3 Bft)
29.12.2017 22:00 0,9 C 95 % 1007,6 hPa 0,0 l/m 8,7 km/h (2 Bft) O-NO 0,1 C -1,4 C 20,0 km/h (4 Bft)
29.12.2017 23:00 1,2 C 94 % 1009,5 hPa 0,0 l/m 7,9 km/h (2 Bft) O-NO 0,3 C -0,5 C 17,1 km/h (3 Bft)
30.12.2017 00:00 1,2 C 94 % 1010,5 hPa 0,3 l/m 4,3 km/h (1 Bft) O 0,3 C 1,2 C 10,5 km/h (2 Bft)
30.12.2017 01:00 1,1 C 94 % 1011,5 hPa 0,5 l/m 4,8 km/h (1 Bft) O-NO 0,3 C 1,1 C 12,2 km/h (2 Bft)
30.12.2017 02:00 1,2 C 94 % 1011,7 hPa 0,8 l/m 3,7 km/h (1 Bft) O-NO 0,4 C 1,2 C 9,9 km/h (2 Bft)
30.12.2017 03:00 1,1 C 95 % 1011,1 hPa 0,5 l/m 2,6 km/h (1 Bft) N-NO 0,3 C 1,1 C 7,7 km/h (2 Bft)
30.12.2017 04:00 0,7 C 95 % 1010,3 hPa 0,5 l/m 1,8 km/h (1 Bft) O-NO 0,1 C 0,7 C 4,5 km/h (1 Bft)
30.12.2017 05:00 0,8 C 95 % 1009,7 hPa 0,5 l/m 2,5 km/h (1 Bft) O-NO 0,1 C 0,8 C 5,9 km/h (2 Bft)
30.12.2017 06:00 0,8 C 95 % 1009,3 hPa 0,8 l/m 2,5 km/h (1 Bft) O-NO 0,1 C 0,8 C 6,0 km/h (2 Bft)
30.12.2017 07:00 0,6 C 96 % 1008,6 hPa 0,5 l/m 3,1 km/h (1 Bft) O-NO 0,1 C 0,6 C 8,4 km/h (2 Bft)
30.12.2017 08:00 1,1 C 96 % 1007,9 hPa 1,8 l/m 4,4 km/h (1 Bft) NO 0,4 C 1,1 C 10,7 km/h (2 Bft)
30.12.2017 09:00 1,2 C 95 % 1007,3 hPa 3,6 l/m 6,6 km/h (2 Bft) O-NO 0,5 C 0,4 C 15,8 km/h (3 Bft)
30.12.2017 10:00 1,1 C 95 % 1006,8 hPa 2,8 l/m 6,5 km/h (2 Bft) O-NO 0,4 C 0,5 C 15,4 km/h (3 Bft)
30.12.2017 11:00 4,2 C 97 % 1006,1 hPa 3,6 l/m 5,7 km/h (2 Bft) NO 3,7 C 3,8 C 13,4 km/h (3 Bft)
30.12.2017 12:00 5,7 C 96 % 1006,0 hPa 5,6 l/m 7,4 km/h (2 Bft) NO 5,0 C 4,7 C 18,3 km/h (3 Bft)
30.12.2017 13:00 6,7 C 95 % 1006,5 hPa 5,3 l/m 7,2 km/h (2 Bft) O-NO 6,0 C 5,7 C 21,1 km/h (4 Bft)
30.12.2017 14:00 7,4 C 95 % 1006,9 hPa 1,3 l/m 6,0 km/h (2 Bft) O-NO 6,7 C 7,3 C 17,8 km/h (3 Bft)
30.12.2017 15:00 8,4 C 94 % 1007,9 hPa 0,5 l/m 6,7 km/h (2 Bft) O 7,5 C 7,9 C 18,8 km/h (3 Bft)
30.12.2017 16:00 8,7 C 95 % 1008,7 hPa 0,3 l/m 6,0 km/h (2 Bft) O-NO 7,9 C 8,5 C 17,4 km/h (3 Bft)
30.12.2017 17:00 9,0 C 94 % 1009,5 hPa 0,0 l/m 5,1 km/h (1 Bft) O-NO 8,0 C 8,7 C 15,5 km/h (3 Bft)
30.12.2017 18:00 8,8 C 96 % 1009,7 hPa 1,5 l/m 4,4 km/h (1 Bft) O-NO 8,2 C 8,7 C 13,1 km/h (3 Bft)
30.12.2017 19:00 9,3 C 96 % 1010,1 hPa 2,3 l/m 4,7 km/h (1 Bft) NO 8,7 C 9,3 C 13,0 km/h (3 Bft)
30.12.2017 20:00 9,5 C 96 % 1010,0 hPa 2,5 l/m 6,9 km/h (2 Bft) NO 8,9 C 8,8 C 19,0 km/h (3 Bft)
30.12.2017 21:00 9,8 C 96 % 1010,4 hPa 1,3 l/m 9,2 km/h (2 Bft) NO 9,2 C 7,9 C 22,5 km/h (4 Bft)
30.12.2017 22:00 9,9 C 95 % 1010,7 hPa 1,3 l/m 10,0 km/h (2 Bft) O-NO 9,1 C 7,5 C 24,5 km/h (4 Bft)
30.12.2017 23:00 9,7 C 94 % 1011,4 hPa 1,8 l/m 12,6 km/h (3 Bft) O-NO 8,8 C 6,0 C 27,4 km/h (5 Bft)
31.12.2017 00:00 9,6 C 93 % 1011,9 hPa 0,5 l/m 10,2 km/h (2 Bft) NO 8,6 C 7,2 C 25,2 km/h (4 Bft)
31.12.2017 01:00 9,6 C 90 % 1012,7 hPa 0,0 l/m 9,9 km/h (2 Bft) NO 8,0 C 7,4 C 24,8 km/h (4 Bft)
31.12.2017 02:00 9,5 C 89 % 1013,2 hPa 0,0 l/m 8,2 km/h (2 Bft) O-SO 7,8 C 8,0 C 22,2 km/h (4 Bft)
31.12.2017 03:00 9,2 C 91 % 1013,3 hPa 0,0 l/m 8,3 km/h (2 Bft) O 7,9 C 7,9 C 21,6 km/h (4 Bft)
31.12.2017 04:00 9,2 C 92 % 1013,2 hPa 0,3 l/m 7,9 km/h (2 Bft) O-NO 7,9 C 8,0 C 19,6 km/h (3 Bft)
31.12.2017 05:00 9,3 C 90 % 1013,1 hPa 0,0 l/m 8,6 km/h (2 Bft) O-NO 7,7 C 7,7 C 21,7 km/h (4 Bft)
31.12.2017 06:00 9,2 C 88 % 1013,3 hPa 0,0 l/m 7,7 km/h (2 Bft) O-NO 7,3 C 8,2 C 19,8 km/h (4 Bft)
31.12.2017 07:00 9,1 C 87 % 1013,4 hPa 0,0 l/m 8,0 km/h (2 Bft) NO 7,0 C 7,9 C 20,0 km/h (4 Bft)
31.12.2017 08:00 9,0 C 85 % 1013,5 hPa 0,0 l/m 7,5 km/h (2 Bft) O-NO 6,6 C 8,1 C 18,4 km/h (3 Bft)
31.12.2017 09:00 9,2 C 82 % 1013,5 hPa 0,0 l/m 9,4 km/h (2 Bft) O-NO 6,3 C 7,1 C 21,8 km/h (4 Bft)
31.12.2017 10:00 9,5 C 79 % 1013,4 hPa 0,0 l/m 8,7 km/h (2 Bft) O-NO 6,1 C 7,9 C 20,5 km/h (4 Bft)
31.12.2017 11:00 10,1 C 76 % 1012,5 hPa 0,0 l/m 8,3 km/h (2 Bft) O-NO 6,1 C 8,9 C 17,3 km/h (3 Bft)
31.12.2017 12:00 10,4 C 76 % 1011,9 hPa 0,0 l/m 9,2 km/h (2 Bft) NO 6,4 C 8,5 C 18,5 km/h (3 Bft)
31.12.2017 13:00 10,8 C 74 % 1010,8 hPa 0,0 l/m 7,2 km/h (2 Bft) O-NO 6,3 C 10,1 C 17,6 km/h (3 Bft)
31.12.2017 14:00 11,9 C 69 % 1009,7 hPa 0,0 l/m 5,6 km/h (2 Bft) O-NO 6,3 C 11,6 C 15,0 km/h (3 Bft)
31.12.2017 15:00 11,1 C 68 % 1008,5 hPa 0,0 l/m 4,8 km/h (1 Bft) O-NO 5,5 C 11,1 C 12,4 km/h (2 Bft)
31.12.2017 16:00 9,3 C 74 % 1007,9 hPa 0,0 l/m 1,6 km/h (1 Bft) O 4,9 C 9,3 C 4,1 km/h (1 Bft)
31.12.2017 17:00 6,4 C 86 % 1007,2 hPa 0,0 l/m 0,0 km/h (0 Bft) O 4,2 C 6,4 C 0,1 km/h (0 Bft)
31.12.2017 18:00 6,4 C 87 % 1006,7 hPa 0,0 l/m 0,9 km/h (0 Bft) O 4,3 C 6,4 C 3,6 km/h (1 Bft)
31.12.2017 19:00 6,6 C 85 % 1006,5 hPa 0,0 l/m 3,0 km/h (1 Bft) O 4,3 C 6,6 C 8,9 km/h (2 Bft)
31.12.2017 20:00 5,6 C 87 % 1006,1 hPa 0,0 l/m 0,6 km/h (0 Bft) N-NO 3,6 C 5,6 C 3,1 km/h (1 Bft)
31.12.2017 21:00 5,4 C 88 % 1005,6 hPa 0,0 l/m 1,4 km/h (1 Bft) N-NO 3,4 C 5,4 C 5,2 km/h (1 Bft)
31.12.2017 22:00 8,6 C 72 % 1005,5 hPa 0,0 l/m 4,6 km/h (1 Bft) O-NO 3,9 C 8,5 C 14,0 km/h (3 Bft)
31.12.2017 23:00 9,2 C 71 % 1005,8 hPa 0,0 l/m 7,3 km/h (2 Bft) O-NO 4,3 C 8,3 C 16,4 km/h (3 Bft)
Min-Datum _ 29.12.17 31.12.17 27.12.17 - 31.12.17 - 29.12.17 29.12.17 31.12.17
_ Min-Zeit 07:10 15:05 17:00 - 21:00 - 07:10 07:10 21:00
Minimum _ -6,8 C 64 % 986,6 hPa - 0,0 km/h (0 Bft) - -7,7 C -6,8 C 0,0 km/h (0 Bft)
Max-Datum _ 31.12.17 30.12.17 25.12.17 30.12.17 26.12.17 - 30.12.17 31.12.17 26.12.17
_ Max-Zeit 14:55 11:20 00:00 12:35 11:52 - 21:05 14:55 10:55
Maximum _ 12,6 C 98 % 1026,8 hPa 5,6 l/m 25,7 km/h
O-NO (4 Bft)
- 9,2 C 12,6 C 46,7 km/h
O-NO (6 Bft)
Durchschnitt _ 2,4 C 89 % 1007,1 hPa #45,0 l/m 3,8 km/h (1 Bft) O-NO 0,8 C 2,0 C 10,2 km/h (2 Bft)